createdAt,value
2022-12-14T00:01:28.132Z,51.75
2022-12-14T00:03:56.357Z,51.83
2022-12-14T00:06:31.511Z,53.10
2022-12-14T00:09:04.692Z,55.25
2022-12-14T00:11:33.621Z,55.17
2022-12-14T00:14:02.426Z,51.15
2022-12-14T00:16:31.662Z,48.22
2022-12-14T00:19:00.486Z,52.95
2022-12-14T00:21:27.871Z,52.10
2022-12-14T00:23:55.601Z,47.42
2022-12-14T00:26:24.986Z,49.20
2022-12-14T00:28:53.670Z,53.75
2022-12-14T00:31:21.649Z,48.42
2022-12-14T00:33:48.816Z,47.28
2022-12-14T00:36:15.510Z,46.90
2022-12-14T00:38:42.778Z,48.45
2022-12-14T00:41:10.219Z,51.13
2022-12-14T00:43:37.164Z,50.35
2022-12-14T00:46:03.998Z,46.83
2022-12-14T00:48:31.776Z,49.85
2022-12-14T00:50:58.965Z,54.30
2022-12-14T00:53:26.469Z,51.10
2022-12-14T00:55:53.227Z,51.15
2022-12-14T00:58:22.832Z,51.20
2022-12-14T01:01:03.094Z,54.13
2022-12-14T01:03:30.636Z,53.28
2022-12-14T01:05:57.663Z,51.05
2022-12-14T01:08:24.590Z,53.00
2022-12-14T01:10:52.157Z,50.33
2022-12-14T01:13:19.016Z,48.55
2022-12-14T01:15:45.787Z,48.22
2022-12-14T01:18:13.057Z,51.00
2022-12-14T01:20:39.720Z,52.08
2022-12-14T01:23:06.418Z,50.45
2022-12-14T01:25:33.098Z,55.35
2022-12-14T01:27:59.742Z,56.30
2022-12-14T01:30:26.431Z,56.13
2022-12-14T01:32:53.257Z,52.28
2022-12-14T01:35:19.898Z,47.75
2022-12-14T01:37:48.995Z,51.53
2022-12-14T01:40:16.412Z,48.63
2022-12-14T01:42:43.132Z,52.50
2022-12-14T01:45:22.629Z,50.10
2022-12-14T01:47:56.804Z,52.97
2022-12-14T01:50:33.463Z,50.15
2022-12-14T01:53:05.292Z,53.78
2022-12-14T01:55:48.711Z,52.10
2022-12-14T01:58:20.727Z,49.55
2022-12-14T02:00:47.696Z,49.42
2022-12-14T02:03:22.150Z,49.70
2022-12-14T02:05:55.253Z,50.88
2022-12-14T02:08:24.383Z,46.17
2022-12-14T02:10:53.285Z,47.20
2022-12-14T02:13:23.317Z,44.95
2022-12-14T02:18:24.624Z,46.60
2022-12-14T02:21:17.630Z,50.42
2022-12-14T02:24:06.216Z,45.45
2022-12-14T02:26:32.854Z,48.92
2022-12-14T02:29:07.750Z,48.80
2022-12-14T02:31:48.929Z,51.58
2022-12-14T02:34:37.362Z,52.63
2022-12-14T02:37:22.665Z,52.78
2022-12-14T02:40:15.212Z,54.15
2022-12-14T02:42:48.111Z,48.40
2022-12-14T02:45:44.123Z,52.13
2022-12-14T02:48:22.707Z,54.20
2022-12-14T02:50:55.141Z,50.78
2022-12-14T02:53:33.560Z,53.20
2022-12-14T02:56:05.400Z,54.00
2022-12-14T02:58:48.823Z,52.28
2022-12-14T03:01:19.368Z,48.00
2022-12-14T03:03:46.400Z,60.17
2022-12-14T03:06:28.398Z,52.50
2022-12-14T03:09:03.380Z,48.67
2022-12-14T03:11:58.588Z,53.30
2022-12-14T03:14:37.229Z,56.28
2022-12-14T03:17:10.256Z,51.90
2022-12-14T03:19:50.163Z,58.90
2022-12-14T03:22:32.651Z,57.60
2022-12-14T03:25:03.805Z,59.53
2022-12-14T03:27:32.951Z,59.28
2022-12-14T03:30:04.822Z,58.17
2022-12-14T03:32:33.779Z,61.95
2022-12-14T03:35:11.192Z,53.95
2022-12-14T03:37:40.630Z,57.17
2022-12-14T03:40:10.851Z,58.80
2022-12-14T03:42:59.453Z,51.30
2022-12-14T03:45:50.206Z,56.38
2022-12-14T03:48:31.904Z,55.05
2022-12-14T03:51:11.560Z,55.85
2022-12-14T03:54:04.129Z,53.85
2022-12-14T03:56:52.719Z,55.50
2022-12-14T03:59:54.475Z,58.70
2022-12-14T04:02:39.273Z,54.85
2022-12-14T04:05:42.893Z,57.03
2022-12-14T04:08:17.976Z,54.65
2022-12-14T04:11:07.404Z,57.45
2022-12-14T04:13:59.829Z,56.35
2022-12-14T04:16:51.766Z,55.88
2022-12-14T04:19:29.156Z,52.13
2022-12-14T04:21:59.575Z,57.47
2022-12-14T04:24:54.961Z,50.53
2022-12-14T04:27:34.508Z,51.92
2022-12-14T04:30:03.675Z,52.10
2022-12-14T04:32:33.548Z,55.23
2022-12-14T04:35:15.134Z,49.70
2022-12-14T04:37:45.166Z,52.05
2022-12-14T04:40:21.063Z,54.22
2022-12-14T04:42:59.444Z,51.92
2022-12-14T04:45:41.774Z,52.70
2022-12-14T04:48:17.798Z,54.60
2022-12-14T04:50:54.373Z,58.83
2022-12-14T04:53:29.995Z,52.97
2022-12-14T04:56:11.136Z,52.55
2022-12-14T04:58:40.088Z,51.97
2022-12-14T05:01:15.920Z,55.63
2022-12-14T05:04:12.564Z,54.10
2022-12-14T05:07:00.925Z,52.13
2022-12-14T05:09:31.556Z,50.70
2022-12-14T05:12:11.633Z,50.92
2022-12-14T05:17:09.776Z,53.38
2022-12-14T05:19:37.785Z,52.50
2022-12-14T05:22:07.005Z,52.40
2022-12-14T05:24:33.848Z,51.63
2022-12-14T05:27:00.586Z,47.03
2022-12-14T05:29:27.268Z,51.33
2022-12-14T05:31:54.104Z,54.13
2022-12-14T05:34:20.895Z,55.45
2022-12-14T05:36:47.588Z,48.55
2022-12-14T05:39:15.297Z,52.13
2022-12-14T05:41:42.357Z,50.40
2022-12-14T05:44:09.225Z,49.35
2022-12-14T05:46:35.893Z,51.35
2022-12-14T05:49:02.619Z,49.20
2022-12-14T05:51:29.308Z,52.40
2022-12-14T05:53:58.336Z,52.58
2022-12-14T05:56:25.154Z,52.65
2022-12-14T05:58:52.218Z,53.50
2022-12-14T06:01:19.925Z,53.35
2022-12-14T06:03:46.924Z,51.20
2022-12-14T06:06:14.993Z,57.65
2022-12-14T06:08:44.133Z,59.45
2022-12-14T06:11:19.949Z,59.50
2022-12-14T06:13:47.280Z,58.42
2022-12-14T06:16:21.908Z,53.75
2022-12-14T06:18:54.370Z,54.92
2022-12-14T06:21:23.890Z,59.72
2022-12-14T06:23:50.583Z,52.40
2022-12-14T06:26:17.897Z,64.80
2022-12-14T06:28:45.166Z,55.08
2022-12-14T06:31:31.789Z,57.50
2022-12-14T06:34:03.533Z,57.08
2022-12-14T06:36:35.623Z,51.67
2022-12-14T06:39:06.656Z,61.50
2022-12-14T06:41:33.349Z,54.53
2022-12-14T06:44:08.271Z,58.28
2022-12-14T06:46:36.121Z,56.28
2022-12-14T06:49:03.957Z,53.85
2022-12-14T06:51:30.642Z,44.83
2022-12-14T06:53:57.939Z,51.05
2022-12-14T06:56:27.523Z,52.25
2022-12-14T06:58:55.065Z,50.42
2022-12-14T07:01:23.874Z,48.80
2022-12-14T07:03:55.783Z,51.10
2022-12-14T07:06:23.976Z,52.10
2022-12-14T07:08:53.930Z,50.90
2022-12-14T07:11:21.705Z,52.85
2022-12-14T07:13:48.992Z,53.60
2022-12-14T07:16:19.187Z,56.05
2022-12-14T07:21:15.306Z,51.80
2022-12-14T07:23:43.980Z,54.83
2022-12-14T07:26:12.083Z,47.45
2022-12-14T07:28:39.172Z,49.05
2022-12-14T07:31:10.060Z,61.00
2022-12-14T07:33:36.721Z,52.75
2022-12-14T07:36:12.567Z,55.63
2022-12-14T07:38:40.724Z,49.55
2022-12-14T07:41:16.491Z,54.92
2022-12-14T07:43:46.298Z,52.42
2022-12-14T07:46:19.916Z,52.80
2022-12-14T07:48:49.959Z,48.88
2022-12-14T07:51:19.790Z,45.75
2022-12-14T07:53:47.909Z,50.42
2022-12-14T07:56:18.166Z,41.15
2022-12-14T07:58:45.503Z,42.60
2022-12-14T08:01:15.760Z,41.42
2022-12-14T08:03:48.566Z,42.67
2022-12-14T08:06:17.108Z,38.80
2022-12-14T08:08:44.508Z,41.65
2022-12-14T08:11:12.690Z,41.10
2022-12-14T08:13:40.100Z,45.40
2022-12-14T08:16:09.787Z,40.65
2022-12-14T08:18:36.872Z,39.85
2022-12-14T08:21:05.256Z,41.28
2022-12-14T08:23:32.804Z,38.20
2022-12-14T08:26:01.386Z,44.75
2022-12-14T08:28:29.684Z,47.30
2022-12-14T08:30:56.784Z,45.60
2022-12-14T08:33:24.483Z,41.25
2022-12-14T08:35:51.578Z,41.20
2022-12-14T08:38:18.287Z,40.17
2022-12-14T08:40:45.022Z,39.28
2022-12-14T08:43:11.803Z,45.58
2022-12-14T08:45:39.146Z,41.47
2022-12-14T08:48:06.078Z,52.35
2022-12-14T08:50:32.884Z,48.05
2022-12-14T08:52:59.803Z,54.10
2022-12-14T08:55:30.223Z,56.80
2022-12-14T08:57:59.278Z,52.25
2022-12-14T09:00:26.003Z,51.05
2022-12-14T09:02:52.883Z,51.38
2022-12-14T09:05:19.779Z,53.85
2022-12-14T09:07:46.597Z,48.58
2022-12-14T09:10:13.617Z,52.53
2022-12-14T09:12:40.496Z,52.92
2022-12-14T09:15:08.075Z,50.50
2022-12-14T09:17:34.845Z,54.35
2022-12-14T09:20:01.758Z,52.40
2022-12-14T09:22:28.728Z,50.00
2022-12-14T09:24:55.483Z,46.72
2022-12-14T09:27:22.528Z,55.88
2022-12-14T09:29:50.476Z,53.38
2022-12-14T09:32:17.215Z,49.20
2022-12-14T09:34:44.047Z,50.78
2022-12-14T09:37:10.829Z,60.95
2022-12-14T09:39:37.686Z,52.83
2022-12-14T09:42:26.132Z,54.72
2022-12-14T09:45:05.899Z,49.33
2022-12-14T09:47:43.186Z,47.05
2022-12-14T09:50:16.688Z,46.78
2022-12-14T09:52:52.336Z,39.45
2022-12-14T09:55:26.944Z,37.08
2022-12-14T09:58:14.371Z,37.67
2022-12-14T10:00:53.850Z,33.75
2022-12-14T10:04:09.098Z,36.03
2022-12-14T10:07:12.736Z,31.77
2022-12-14T10:10:13.705Z,37.35
2022-12-14T10:13:28.651Z,35.53
2022-12-14T10:16:16.247Z,36.60
2022-12-14T10:19:10.198Z,36.22
2022-12-14T10:21:54.463Z,43.83
2022-12-14T10:24:26.384Z,39.28
2022-12-14T10:26:55.639Z,35.03
2022-12-14T10:29:37.547Z,36.13
2022-12-14T10:32:28.368Z,32.15
2022-12-14T10:34:55.053Z,34.67
2022-12-14T10:37:37.802Z,36.20
2022-12-14T10:40:17.604Z,34.53
2022-12-14T10:43:12.405Z,35.45
2022-12-14T10:46:14.230Z,36.72
2022-12-14T10:49:12.175Z,43.92
2022-12-14T10:51:41.738Z,42.45
2022-12-14T10:54:26.628Z,41.15
2022-12-14T10:56:53.717Z,38.08
2022-12-14T10:59:26.567Z,41.70
2022-12-14T11:01:55.596Z,43.42
2022-12-14T11:04:29.802Z,44.87
2022-12-14T11:07:02.727Z,45.75
2022-12-14T11:09:30.027Z,44.75
2022-12-14T11:11:59.699Z,38.38
2022-12-14T11:14:27.662Z,37.80
2022-12-14T11:16:54.552Z,41.47
2022-12-14T11:19:24.725Z,38.60
2022-12-14T11:24:31.379Z,38.10
2022-12-14T11:27:03.874Z,39.65
2022-12-14T11:29:39.316Z,47.72
2022-12-14T11:32:06.917Z,43.13
2022-12-14T11:34:39.447Z,38.38
2022-12-14T11:37:11.568Z,37.00
2022-12-14T11:39:42.481Z,41.20
2022-12-14T11:42:17.306Z,38.53
2022-12-14T11:44:45.916Z,42.10
2022-12-14T11:47:15.768Z,36.40
2022-12-14T11:49:44.650Z,40.72
2022-12-14T11:52:18.286Z,40.67
2022-12-14T11:55:03.928Z,35.65
2022-12-14T11:57:41.293Z,42.20
2022-12-14T12:00:41.321Z,40.20
2022-12-14T12:03:47.865Z,38.25
2022-12-14T12:06:20.970Z,36.17
2022-12-14T12:08:53.689Z,36.20
2022-12-14T12:11:23.550Z,31.60
2022-12-14T12:13:52.520Z,35.08
2022-12-14T12:16:26.290Z,29.00
2022-12-14T12:18:58.917Z,34.70
2022-12-14T12:21:31.044Z,33.97
2022-12-14T12:24:18.357Z,30.42
2022-12-14T12:27:12.080Z,29.23
2022-12-14T12:29:41.605Z,30.10
2022-12-14T12:32:14.238Z,29.08
2022-12-14T12:34:43.907Z,32.67
2022-12-14T12:37:31.524Z,29.17
2022-12-14T12:40:04.046Z,25.45
2022-12-14T12:42:58.939Z,28.05
2022-12-14T12:45:34.503Z,30.90
2022-12-14T12:48:07.592Z,30.33
2022-12-14T12:50:39.596Z,31.13
2022-12-14T12:53:19.045Z,29.25
2022-12-14T12:55:53.614Z,29.23
2022-12-14T12:58:25.002Z,30.08
2022-12-14T13:00:55.576Z,27.27
2022-12-14T13:03:37.422Z,26.90
2022-12-14T13:06:28.007Z,31.83
2022-12-14T13:09:01.086Z,37.47
2022-12-14T13:11:38.221Z,30.17
2022-12-14T13:14:30.703Z,31.25
2022-12-14T13:17:00.297Z,30.08
2022-12-14T13:19:50.577Z,27.42
2022-12-14T13:22:31.840Z,37.03
2022-12-14T13:25:08.139Z,27.08
2022-12-14T13:28:12.413Z,25.60
2022-12-14T13:30:48.631Z,33.28
2022-12-14T13:33:33.619Z,26.42
2022-12-14T13:36:20.665Z,26.30
2022-12-14T13:39:21.184Z,31.63
2022-12-14T13:42:06.599Z,28.45
2022-12-14T13:45:01.391Z,28.25
2022-12-14T13:47:37.055Z,28.38
2022-12-14T13:50:34.863Z,23.50
2022-12-14T13:52:59.369Z,27.70
2022-12-14T13:55:38.791Z,27.90
2022-12-14T13:58:16.111Z,26.23
2022-12-14T14:00:45.847Z,23.33
2022-12-14T14:03:35.645Z,25.65
2022-12-14T14:06:14.718Z,33.13
2022-12-14T14:08:49.755Z,26.25
2022-12-14T14:11:36.476Z,27.80
2022-12-14T14:14:19.254Z,27.55
2022-12-14T14:16:51.920Z,29.13
2022-12-14T14:19:24.442Z,30.48
2022-12-14T14:22:25.179Z,31.75
2022-12-14T14:24:58.270Z,33.13
2022-12-14T14:27:50.270Z,30.42
2022-12-14T14:30:36.583Z,26.05
2022-12-14T14:33:44.979Z,29.30
2022-12-14T14:36:16.606Z,29.60
2022-12-14T14:38:44.021Z,25.00
2022-12-14T14:41:20.345Z,25.92
2022-12-14T14:44:00.196Z,26.75
2022-12-14T14:46:46.906Z,28.10
2022-12-14T14:49:24.533Z,34.78
2022-12-14T14:51:51.324Z,31.42
2022-12-14T14:54:46.167Z,31.00
2022-12-14T14:57:35.332Z,33.03
2022-12-14T15:00:05.048Z,33.88
2022-12-14T15:02:39.316Z,29.58
2022-12-14T15:07:58.617Z,27.42
2022-12-14T15:10:38.537Z,31.70
2022-12-14T15:13:43.685Z,29.65
2022-12-14T15:16:33.964Z,35.00
2022-12-14T15:19:29.350Z,31.02
2022-12-14T15:22:30.504Z,32.78
2022-12-14T15:25:00.577Z,32.38
2022-12-14T15:30:23.318Z,35.30
2022-12-14T15:32:56.341Z,38.28
2022-12-14T15:35:32.885Z,38.67
2022-12-14T15:38:18.564Z,43.08
2022-12-14T15:41:12.607Z,47.50
2022-12-14T15:43:47.496Z,45.63
2022-12-14T15:46:24.273Z,39.92
2022-12-14T15:49:00.089Z,40.22
2022-12-14T15:51:41.838Z,47.60
2022-12-14T15:54:15.947Z,47.65
2022-12-14T15:56:45.594Z,51.42
2022-12-14T15:59:27.093Z,48.50
2022-12-14T16:02:31.107Z,50.28
2022-12-14T16:05:02.166Z,56.53
2022-12-14T16:07:39.232Z,56.10
2022-12-14T16:10:24.067Z,55.35
2022-12-14T16:12:55.555Z,64.03
2022-12-14T16:15:25.861Z,55.38
2022-12-14T16:18:01.036Z,59.50
2022-12-14T16:20:31.898Z,57.92
2022-12-14T16:25:26.202Z,61.25
2022-12-14T16:27:53.597Z,66.13
2022-12-14T16:30:27.302Z,66.05
2022-12-14T16:33:17.361Z,78.78
2022-12-14T16:35:45.551Z,65.10
2022-12-14T16:38:14.857Z,72.35
2022-12-14T16:40:55.343Z,75.85
2022-12-14T16:43:36.686Z,69.32
2022-12-14T16:46:03.366Z,70.22
2022-12-14T16:48:31.613Z,69.70
2022-12-14T16:51:32.777Z,63.47
2022-12-14T16:54:20.825Z,69.20
2022-12-14T16:57:01.108Z,63.28
2022-12-14T16:59:42.939Z,62.72
2022-12-14T17:02:28.628Z,70.18
2022-12-14T17:04:57.508Z,68.72
2022-12-14T17:07:27.188Z,66.88
2022-12-14T17:09:56.345Z,77.38
2022-12-14T17:12:25.424Z,64.53
2022-12-14T17:14:52.746Z,60.33
2022-12-14T17:17:33.301Z,73.30
2022-12-14T17:20:00.494Z,63.53
2022-12-14T17:22:31.010Z,64.78
2022-12-14T17:24:59.299Z,64.45
2022-12-14T17:27:26.822Z,66.20
2022-12-14T17:29:54.453Z,69.28
2022-12-14T17:32:22.199Z,56.88
2022-12-14T17:34:48.955Z,55.15
2022-12-14T17:37:16.986Z,56.72
2022-12-14T17:39:43.683Z,50.90
2022-12-14T17:42:13.191Z,54.95
2022-12-14T17:44:41.935Z,63.63
2022-12-14T17:47:13.386Z,52.15
2022-12-14T17:49:42.252Z,54.72
2022-12-14T17:52:18.927Z,60.35
2022-12-14T17:54:46.045Z,60.55
2022-12-14T17:57:25.078Z,61.65
2022-12-14T18:00:10.580Z,61.42
2022-12-14T18:02:37.874Z,62.38
2022-12-14T18:05:05.439Z,62.47
2022-12-14T18:07:32.172Z,64.65
2022-12-14T18:09:58.823Z,56.67
2022-12-14T18:12:25.866Z,66.15
2022-12-14T18:14:52.724Z,67.70
2022-12-14T18:17:19.600Z,74.75
2022-12-14T18:19:47.750Z,67.32
2022-12-14T18:22:16.394Z,60.13
2022-12-14T18:24:43.055Z,62.78
2022-12-14T18:27:09.729Z,71.93
2022-12-14T18:29:38.813Z,78.68
2022-12-14T18:32:05.654Z,73.03
2022-12-14T18:34:32.741Z,72.15
2022-12-14T18:36:59.601Z,67.75
2022-12-14T18:39:26.292Z,73.20
2022-12-14T18:41:52.988Z,74.40
2022-12-14T18:44:19.709Z,70.35
2022-12-14T18:46:49.406Z,71.40
2022-12-14T18:49:16.346Z,73.05
2022-12-14T18:51:43.557Z,66.60
2022-12-14T18:54:11.631Z,70.10
2022-12-14T18:56:41.045Z,66.95
2022-12-14T18:59:07.819Z,64.13
2022-12-14T19:01:34.611Z,61.53
2022-12-14T19:04:01.590Z,49.08
2022-12-14T19:06:45.204Z,54.42
2022-12-14T19:09:13.576Z,52.33
2022-12-14T19:11:43.893Z,60.03
2022-12-14T19:14:11.212Z,68.18
2022-12-14T19:16:38.435Z,62.70
2022-12-14T19:19:05.297Z,54.58
2022-12-14T19:21:32.031Z,58.45
2022-12-14T19:24:00.271Z,61.97
2022-12-14T19:26:28.476Z,67.07
2022-12-14T19:28:55.368Z,70.25
2022-12-14T19:31:22.165Z,68.55
2022-12-14T19:33:48.892Z,71.68
2022-12-14T19:36:15.690Z,70.20
2022-12-14T19:38:42.398Z,62.78
2022-12-14T19:41:12.113Z,59.75
2022-12-14T19:43:38.853Z,58.00
2022-12-14T19:46:10.345Z,52.88
2022-12-14T19:48:42.169Z,58.63
2022-12-14T19:51:11.784Z,57.35
2022-12-14T19:53:40.446Z,44.22
2022-12-14T19:56:07.405Z,64.15
2022-12-14T19:58:34.476Z,60.33
2022-12-14T20:01:01.504Z,60.33
2022-12-14T20:03:28.669Z,46.15
2022-12-14T20:06:00.922Z,64.45
2022-12-14T20:08:29.563Z,61.92
2022-12-14T20:10:57.090Z,54.75
2022-12-14T20:13:26.629Z,56.45
2022-12-14T20:16:02.035Z,60.58
2022-12-14T20:18:30.392Z,55.15
2022-12-14T20:21:04.950Z,64.10
2022-12-14T20:23:35.155Z,75.50
2022-12-14T20:26:04.171Z,69.38
2022-12-14T20:28:31.160Z,67.00
2022-12-14T20:30:58.057Z,66.18
2022-12-14T20:33:29.811Z,59.40
2022-12-14T20:35:57.561Z,60.22
2022-12-14T20:38:24.481Z,61.97
2022-12-14T20:40:51.273Z,59.75
2022-12-14T20:43:17.975Z,55.30
2022-12-14T20:45:44.791Z,53.95
2022-12-14T20:48:11.524Z,48.25
2022-12-14T20:50:40.515Z,53.58
2022-12-14T20:53:07.701Z,42.72
2022-12-14T20:55:35.425Z,49.65
2022-12-14T20:58:02.199Z,44.15
2022-12-14T21:00:29.346Z,53.13
2022-12-14T21:02:56.172Z,41.42
2022-12-14T21:05:23.113Z,40.78
2022-12-14T21:07:49.888Z,44.55
2022-12-14T21:10:16.619Z,52.92
2022-12-14T21:12:43.327Z,55.45
2022-12-14T21:15:10.101Z,50.28
2022-12-14T21:17:36.872Z,49.00
2022-12-14T21:20:05.147Z,57.50
2022-12-14T21:22:32.363Z,51.25
2022-12-14T21:25:04.391Z,63.30
2022-12-14T21:27:33.510Z,65.28
2022-12-14T21:30:00.838Z,47.45
2022-12-14T21:32:27.685Z,53.97
2022-12-14T21:34:54.526Z,41.42
2022-12-14T21:37:21.957Z,43.40
2022-12-14T21:39:54.102Z,44.92
2022-12-14T21:42:23.289Z,43.10
2022-12-14T21:44:51.495Z,51.20
2022-12-14T21:47:29.070Z,43.70
2022-12-14T21:49:56.086Z,33.25
2022-12-14T21:52:25.693Z,26.58
2022-12-14T21:54:52.505Z,35.25
2022-12-14T21:57:42.682Z,32.22
2022-12-14T22:02:37.045Z,19.20
2022-12-14T22:05:04.590Z,29.52
2022-12-14T22:07:33.383Z,19.50
2022-12-14T22:10:00.273Z,25.13
2022-12-14T22:12:27.371Z,21.38
2022-12-14T22:14:54.203Z,26.08
2022-12-14T22:17:20.937Z,26.30
2022-12-14T22:19:48.902Z,21.85
2022-12-14T22:22:16.740Z,24.05
2022-12-14T22:24:44.886Z,23.02
2022-12-14T22:27:12.300Z,29.55
2022-12-14T22:29:39.301Z,22.15
2022-12-14T22:32:06.914Z,23.67
2022-12-14T22:34:33.829Z,24.13
2022-12-14T22:37:00.515Z,27.92
2022-12-14T22:39:27.207Z,26.45
2022-12-14T22:41:53.895Z,18.88
2022-12-14T22:44:20.597Z,22.60
2022-12-14T22:46:47.328Z,26.13
2022-12-14T22:49:19.082Z,26.10
2022-12-14T22:51:46.592Z,21.08
2022-12-14T22:54:22.773Z,25.60
2022-12-14T22:56:57.043Z,27.08
2022-12-14T22:59:33.414Z,21.88
2022-12-14T23:02:00.425Z,23.63
2022-12-14T23:04:27.354Z,19.42
2022-12-14T23:06:54.797Z,22.35
2022-12-14T23:09:40.142Z,19.50
2022-12-14T23:12:25.702Z,24.58
2022-12-14T23:15:11.210Z,25.20
2022-12-14T23:17:56.684Z,26.80
2022-12-14T23:20:42.173Z,25.92
2022-12-14T23:23:28.023Z,25.17
2022-12-14T23:26:13.798Z,27.42
2022-12-14T23:28:59.279Z,26.80
2022-12-14T23:31:44.854Z,30.58
2022-12-14T23:34:30.359Z,24.75
2022-12-14T23:37:20.230Z,24.10
2022-12-14T23:40:06.251Z,21.92
2022-12-14T23:42:51.794Z,24.20
2022-12-14T23:45:37.344Z,23.00
2022-12-14T23:48:22.316Z,25.33
2022-12-14T23:51:07.827Z,26.17
2022-12-14T23:53:53.104Z,17.98
2022-12-14T23:56:38.228Z,15.60
2022-12-14T23:59:29.914Z,23.23
